Terminal Aerodrome Forecast
Issued by NWS

Current Version | Previous Version | Graphics & Text | Print | Product List | Glossary Off
Versions: 1 2 3 4 5 6 7 8 9 10 11 12 13 14 15 16

000
FTUS42 KILM 272327
TAFCRE
TAF
KCRE 272327Z 2800/2824 17010KT P6SM SCT035 SCT250
     FM280200 VRB03KT P6SM FEW250
      TEMPO 2808/2811 4SM BR
     FM281200 19008KT P6SM FEW025 SCT250
     FM281800 17009KT P6SM VCSH FEW050 SCT250=

USA.gov is the U.S. government's official web portal to all federal, state and local government web resources and services.